Tulsa, Oklahoma
Current Conditions -  °F | °C
As of 12:53 AM on Wednesday 22 Oct 2014 (Local Time) from KTUL Reporting Station
Few Clouds Few Clouds  
Wind Chill: 19°   Ceiling: Unl
Heat Index: 19°   Visibility: 9mi
Dew Point: 17°   Wind: 5mph
Humidity: 87%   Direction: 150°SSE
Pressure: 30.06"   Gusts: NA
Location:  36.15°N, 95.99°W
Report Text: KTUL 220553Z 15004KT 9SM FEW070 19/17 A3006 RMK AO2 SLP172 T01890167 10222 20183 402780128 58000
Loading
Personal Weather Stations






























Interactive Weather Map
Tropical Storm Tracking
New forecast layout! Learn more

10-Day Weather Forecast

Advertisements
Track Severe Weather on mobile